sensor_id;sensor_type;location;lat;lon;timestamp;pressure;altitude;pressure_sealevel;temperature;humidity
27729;BME280;15126;42.186;24.340;2023-07-13T00:01:36;99339.50;;;27.90;56.04
27729;BME280;15126;42.186;24.340;2023-07-13T00:04:04;99338.63;;;27.82;56.76
27729;BME280;15126;42.186;24.340;2023-07-13T00:06:31;99339.72;;;27.78;56.93
27729;BME280;15126;42.186;24.340;2023-07-13T00:08:58;99330.34;;;27.78;57.10
27729;BME280;15126;42.186;24.340;2023-07-13T00:11:25;99332.00;;;27.73;58.09
27729;BME280;15126;42.186;24.340;2023-07-13T00:13:51;99327.56;;;27.72;57.90
27729;BME280;15126;42.186;24.340;2023-07-13T00:16:18;99329.44;;;27.70;56.86
27729;BME280;15126;42.186;24.340;2023-07-13T00:18:47;99322.72;;;27.67;57.11
27729;BME280;15126;42.186;24.340;2023-07-13T00:21:14;99328.31;;;27.60;57.23
27729;BME280;15126;42.186;24.340;2023-07-13T00:23:42;99318.06;;;27.51;58.08
27729;BME280;15126;42.186;24.340;2023-07-13T00:26:10;99327.13;;;27.55;56.88
27729;BME280;15126;42.186;24.340;2023-07-13T00:28:38;99315.50;;;27.48;57.37
27729;BME280;15126;42.186;24.340;2023-07-13T00:31:05;99313.50;;;27.43;57.17
27729;BME280;15126;42.186;24.340;2023-07-13T00:33:32;99310.44;;;27.41;57.00
27729;BME280;15126;42.186;24.340;2023-07-13T00:36:00;99308.94;;;27.34;55.63
27729;BME280;15126;42.186;24.340;2023-07-13T00:38:28;99304.84;;;27.30;55.40
27729;BME280;15126;42.186;24.340;2023-07-13T00:40:55;99305.03;;;27.18;54.77
27729;BME280;15126;42.186;24.340;2023-07-13T00:43:23;99316.06;;;27.14;55.39
27729;BME280;15126;42.186;24.340;2023-07-13T00:46:16;99308.72;;;27.00;54.94
27729;BME280;15126;42.186;24.340;2023-07-13T00:48:43;99304.25;;;26.86;55.17
27729;BME280;15126;42.186;24.340;2023-07-13T00:51:14;99313.06;;;26.88;56.28
27729;BME280;15126;42.186;24.340;2023-07-13T00:53:42;99305.09;;;26.81;55.25
27729;BME280;15126;42.186;24.340;2023-07-13T00:56:10;99304.09;;;26.79;55.56
27729;BME280;15126;42.186;24.340;2023-07-13T00:58:37;99303.34;;;26.78;55.71
27729;BME280;15126;42.186;24.340;2023-07-13T01:01:04;99303.06;;;26.76;56.40
27729;BME280;15126;42.186;24.340;2023-07-13T01:03:31;99303.06;;;26.76;56.64
27729;BME280;15126;42.186;24.340;2023-07-13T01:05:58;99306.97;;;26.79;56.78
27729;BME280;15126;42.186;24.340;2023-07-13T01:08:26;99298.97;;;26.72;57.02
27729;BME280;15126;42.186;24.340;2023-07-13T01:10:55;99301.28;;;26.73;57.59
27729;BME280;15126;42.186;24.340;2023-07-13T01:13:22;99289.63;;;26.71;57.78
27729;BME280;15126;42.186;24.340;2023-07-13T01:15:50;99295.88;;;26.70;58.54
27729;BME280;15126;42.186;24.340;2023-07-13T01:18:20;99283.72;;;26.63;58.01
27729;BME280;15126;42.186;24.340;2023-07-13T01:20:53;99275.56;;;26.54;57.45
27729;BME280;15126;42.186;24.340;2023-07-13T01:23:20;99285.38;;;26.59;58.48
27729;BME280;15126;42.186;24.340;2023-07-13T01:25:47;99289.00;;;26.59;58.35
27729;BME280;15126;42.186;24.340;2023-07-13T01:28:14;99287.22;;;26.56;57.80
27729;BME280;15126;42.186;24.340;2023-07-13T01:30:43;99284.13;;;26.54;58.30
27729;BME280;15126;42.186;24.340;2023-07-13T01:33:12;99290.94;;;26.51;57.60
27729;BME280;15126;42.186;24.340;2023-07-13T01:35:40;99281.13;;;26.47;58.46
27729;BME280;15126;42.186;24.340;2023-07-13T01:38:09;99291.31;;;26.42;59.49
27729;BME280;15126;42.186;24.340;2023-07-13T01:40:38;99294.97;;;26.43;59.81
27729;BME280;15126;42.186;24.340;2023-07-13T01:43:05;99292.16;;;26.37;60.27
27729;BME280;15126;42.186;24.340;2023-07-13T01:45:32;99280.34;;;26.28;59.08
27729;BME280;15126;42.186;24.340;2023-07-13T01:47:59;99288.59;;;26.31;59.26
27729;BME280;15126;42.186;24.340;2023-07-13T01:50:27;99297.50;;;26.28;57.88
27729;BME280;15126;42.186;24.340;2023-07-13T01:52:54;99294.41;;;26.26;58.46
27729;BME280;15126;42.186;24.340;2023-07-13T01:55:22;99298.59;;;26.25;58.86
27729;BME280;15126;42.186;24.340;2023-07-13T01:57:49;99299.66;;;26.22;57.93
27729;BME280;15126;42.186;24.340;2023-07-13T02:00:17;99302.28;;;26.20;59.19
27729;BME280;15126;42.186;24.340;2023-07-13T02:02:44;99295.13;;;26.08;59.25
27729;BME280;15126;42.186;24.340;2023-07-13T02:05:11;99307.31;;;26.14;59.16
27729;BME280;15126;42.186;24.340;2023-07-13T02:07:39;99311.69;;;26.15;58.90
27729;BME280;15126;42.186;24.340;2023-07-13T02:10:07;99314.84;;;26.11;60.41
27729;BME280;15126;42.186;24.340;2023-07-13T02:12:35;99319.56;;;26.09;60.92
27729;BME280;15126;42.186;24.340;2023-07-13T02:15:09;99318.53;;;26.06;61.37
27729;BME280;15126;42.186;24.340;2023-07-13T02:17:36;99316.25;;;25.99;60.52
27729;BME280;15126;42.186;24.340;2023-07-13T02:20:04;99309.03;;;25.98;61.36
27729;BME280;15126;42.186;24.340;2023-07-13T02:22:32;99316.56;;;25.95;60.49
27729;BME280;15126;42.186;24.340;2023-07-13T02:24:58;99307.75;;;25.93;62.35
27729;BME280;15126;42.186;24.340;2023-07-13T02:27:25;99320.25;;;25.90;61.00
27729;BME280;15126;42.186;24.340;2023-07-13T02:29:53;99325.50;;;25.86;61.40
27729;BME280;15126;42.186;24.340;2023-07-13T02:32:20;99323.44;;;25.87;60.63
27729;BME280;15126;42.186;24.340;2023-07-13T02:34:47;99338.00;;;25.83;60.98
27729;BME280;15126;42.186;24.340;2023-07-13T02:37:14;99341.69;;;25.78;59.79
27729;BME280;15126;42.186;24.340;2023-07-13T02:39:41;99328.72;;;25.77;60.39
27729;BME280;15126;42.186;24.340;2023-07-13T02:42:08;99333.19;;;25.73;60.83
27729;BME280;15126;42.186;24.340;2023-07-13T02:44:35;99319.28;;;25.58;61.03
27729;BME280;15126;42.186;24.340;2023-07-13T02:47:03;99333.47;;;25.69;60.49
27729;BME280;15126;42.186;24.340;2023-07-13T02:49:30;99339.19;;;25.69;62.07
27729;BME280;15126;42.186;24.340;2023-07-13T02:51:56;99349.09;;;25.68;61.75
27729;BME280;15126;42.186;24.340;2023-07-13T02:54:23;99341.63;;;25.60;61.78
27729;BME280;15126;42.186;24.340;2023-07-13T02:56:50;99353.81;;;25.60;62.60
27729;BME280;15126;42.186;24.340;2023-07-13T02:59:17;99349.19;;;25.57;63.20
27729;BME280;15126;42.186;24.340;2023-07-13T03:01:43;99347.38;;;25.54;63.19
27729;BME280;15126;42.186;24.340;2023-07-13T03:04:12;99335.78;;;25.41;63.32
27729;BME280;15126;42.186;24.340;2023-07-13T03:06:39;99326.50;;;25.35;63.10
27729;BME280;15126;42.186;24.340;2023-07-13T03:09:06;99351.09;;;25.43;62.43
27729;BME280;15126;42.186;24.340;2023-07-13T03:11:33;99347.22;;;25.41;63.28
27729;BME280;15126;42.186;24.340;2023-07-13T03:14:00;99339.94;;;25.40;63.62
27729;BME280;15126;42.186;24.340;2023-07-13T03:16:27;99343.31;;;25.38;64.27
27729;BME280;15126;42.186;24.340;2023-07-13T03:18:54;99341.00;;;25.37;63.14
27729;BME280;15126;42.186;24.340;2023-07-13T03:21:22;99338.44;;;25.33;62.86
27729;BME280;15126;42.186;24.340;2023-07-13T03:23:49;99335.84;;;25.35;63.94
27729;BME280;15126;42.186;24.340;2023-07-13T03:26:18;99344.41;;;25.35;64.23
27729;BME280;15126;42.186;24.340;2023-07-13T03:28:45;99337.91;;;25.35;63.21
27729;BME280;15126;42.186;24.340;2023-07-13T03:31:14;99341.28;;;25.33;63.79
27729;BME280;15126;42.186;24.340;2023-07-13T03:33:42;99344.41;;;25.35;64.00
27729;BME280;15126;42.186;24.340;2023-07-13T03:36:14;99345.72;;;25.34;62.44
27729;BME280;15126;42.186;24.340;2023-07-13T03:38:46;99337.66;;;25.33;62.53
27729;BME280;15126;42.186;24.340;2023-07-13T03:41:14;99320.66;;;25.22;62.43
27729;BME280;15126;42.186;24.340;2023-07-13T03:43:41;99330.19;;;25.30;62.06
27729;BME280;15126;42.186;24.340;2023-07-13T03:46:08;99323.50;;;25.22;60.77
27729;BME280;15126;42.186;24.340;2023-07-13T03:48:35;99349.03;;;25.38;61.60
27729;BME280;15126;42.186;24.340;2023-07-13T03:51:02;99350.88;;;25.36;61.47
27729;BME280;15126;42.186;24.340;2023-07-13T03:53:29;99350.84;;;25.41;62.39
27729;BME280;15126;42.186;24.340;2023-07-13T03:55:57;99350.31;;;25.43;61.83
27729;BME280;15126;42.186;24.340;2023-07-13T03:58:27;99325.44;;;25.38;59.92
27729;BME280;15126;42.186;24.340;2023-07-13T04:00:54;99343.03;;;25.48;62.29
27729;BME280;15126;42.186;24.340;2023-07-13T04:03:21;99345.59;;;25.51;62.20
27729;BME280;15126;42.186;24.340;2023-07-13T04:05:48;99342.19;;;25.53;61.77
27729;BME280;15126;42.186;24.340;2023-07-13T04:08:15;99345.56;;;25.57;61.63
27729;BME280;15126;42.186;24.340;2023-07-13T04:10:42;99346.56;;;25.59;62.35
27729;BME280;15126;42.186;24.340;2023-07-13T04:13:10;99346.28;;;25.63;62.08
27729;BME280;15126;42.186;24.340;2023-07-13T04:15:38;99348.31;;;25.68;61.64
27729;BME280;15126;42.186;24.340;2023-07-13T04:18:05;99336.56;;;25.71;60.87
27729;BME280;15126;42.186;24.340;2023-07-13T04:20:32;99336.75;;;26.03;63.45
27729;BME280;15126;42.186;24.340;2023-07-13T04:22:59;99341.72;;;26.45;59.86
27729;BME280;15126;42.186;24.340;2023-07-13T04:25:26;99341.06;;;26.95;57.65
27729;BME280;15126;42.186;24.340;2023-07-13T04:27:53;99339.09;;;27.54;58.71
27729;BME280;15126;42.186;24.340;2023-07-13T04:30:22;99340.53;;;28.18;57.25
27729;BME280;15126;42.186;24.340;2023-07-13T04:32:51;99340.72;;;28.73;56.86
27729;BME280;15126;42.186;24.340;2023-07-13T04:35:18;99344.78;;;29.24;56.13
27729;BME280;15126;42.186;24.340;2023-07-13T04:37:46;99346.72;;;29.71;51.59
27729;BME280;15126;42.186;24.340;2023-07-13T04:40:14;99349.38;;;30.10;50.28
27729;BME280;15126;42.186;24.340;2023-07-13T04:42:40;99348.75;;;30.32;50.38
27729;BME280;15126;42.186;24.340;2023-07-13T04:45:08;99340.06;;;30.60;50.85
27729;BME280;15126;42.186;24.340;2023-07-13T04:47:36;99352.06;;;30.80;49.00
27729;BME280;15126;42.186;24.340;2023-07-13T04:50:03;99337.66;;;30.80;46.94
27729;BME280;15126;42.186;24.340;2023-07-13T04:52:30;99361.41;;;31.01;48.03
27729;BME280;15126;42.186;24.340;2023-07-13T04:54:58;99357.16;;;31.02;48.53
27729;BME280;15126;42.186;24.340;2023-07-13T04:57:25;99353.50;;;31.01;48.25
27729;BME280;15126;42.186;24.340;2023-07-13T04:59:52;99346.78;;;30.99;47.58
27729;BME280;15126;42.186;24.340;2023-07-13T05:02:20;99350.25;;;31.05;48.99
27729;BME280;15126;42.186;24.340;2023-07-13T05:04:49;99364.09;;;31.06;45.25
27729;BME280;15126;42.186;24.340;2023-07-13T05:07:15;99355.63;;;31.01;48.31
27729;BME280;15126;42.186;24.340;2023-07-13T05:09:42;99360.03;;;31.02;50.58
27729;BME280;15126;42.186;24.340;2023-07-13T05:12:09;99358.72;;;31.03;47.48
27729;BME280;15126;42.186;24.340;2023-07-13T05:14:36;99356.19;;;30.99;45.08
27729;BME280;15126;42.186;24.340;2023-07-13T05:17:03;99354.88;;;31.00;47.88
27729;BME280;15126;42.186;24.340;2023-07-13T05:19:30;99351.59;;;31.04;45.92
27729;BME280;15126;42.186;24.340;2023-07-13T05:21:58;99363.72;;;31.10;49.99
27729;BME280;15126;42.186;24.340;2023-07-13T05:24:25;99361.63;;;31.18;50.16
27729;BME280;15126;42.186;24.340;2023-07-13T05:26:52;99358.19;;;31.27;48.67
27729;BME280;15126;42.186;24.340;2023-07-13T05:29:20;99358.78;;;31.33;48.04
27729;BME280;15126;42.186;24.340;2023-07-13T05:31:47;99355.13;;;31.40;50.94
27729;BME280;15126;42.186;24.340;2023-07-13T05:34:14;99367.28;;;31.54;46.53
27729;BME280;15126;42.186;24.340;2023-07-13T05:36:41;99358.66;;;31.61;44.18
27729;BME280;15126;42.186;24.340;2023-07-13T05:39:09;99363.25;;;31.72;47.99
27729;BME280;15126;42.186;24.340;2023-07-13T05:41:37;99368.47;;;31.81;45.55
27729;BME280;15126;42.186;24.340;2023-07-13T05:44:04;99360.38;;;31.87;46.61
27729;BME280;15126;42.186;24.340;2023-07-13T05:46:30;99369.66;;;32.01;45.51
27729;BME280;15126;42.186;24.340;2023-07-13T05:48:57;99370.22;;;32.14;47.80
27729;BME280;15126;42.186;24.340;2023-07-13T05:51:24;99368.44;;;32.26;49.54
27729;BME280;15126;42.186;24.340;2023-07-13T05:53:51;99368.25;;;32.32;45.99
27729;BME280;15126;42.186;24.340;2023-07-13T05:56:19;99372.63;;;32.48;49.94
27729;BME280;15126;42.186;24.340;2023-07-13T05:58:47;99370.91;;;32.60;47.16
27729;BME280;15126;42.186;24.340;2023-07-13T06:01:15;99375.66;;;32.73;51.06
27729;BME280;15126;42.186;24.340;2023-07-13T06:03:42;99375.66;;;32.80;43.23
27729;BME280;15126;42.186;24.340;2023-07-13T06:06:10;99380.41;;;32.93;47.69
27729;BME280;15126;42.186;24.340;2023-07-13T06:08:36;99374.19;;;33.04;46.59
27729;BME280;15126;42.186;24.340;2023-07-13T06:11:04;99373.22;;;33.09;43.92
27729;BME280;15126;42.186;24.340;2023-07-13T06:13:35;99364.50;;;33.17;44.96
27729;BME280;15126;42.186;24.340;2023-07-13T06:16:02;99363.06;;;33.33;46.44
27729;BME280;15126;42.186;24.340;2023-07-13T06:18:31;99377.94;;;33.54;48.89
27729;BME280;15126;42.186;24.340;2023-07-13T06:20:58;99372.50;;;33.66;46.75
27729;BME280;15126;42.186;24.340;2023-07-13T06:23:25;99365.13;;;33.72;45.16
27729;BME280;15126;42.186;24.340;2023-07-13T06:25:52;99360.09;;;33.73;43.14
27729;BME280;15126;42.186;24.340;2023-07-13T06:28:28;99365.81;;;33.80;43.21
27729;BME280;15126;42.186;24.340;2023-07-13T06:30:59;99368.00;;;33.97;47.55
27729;BME280;15126;42.186;24.340;2023-07-13T06:33:28;99353.28;;;34.02;40.03
27729;BME280;15126;42.186;24.340;2023-07-13T06:35:55;99364.50;;;34.23;45.26
27729;BME280;15126;42.186;24.340;2023-07-13T06:38:22;99369.38;;;34.38;46.56
27729;BME280;15126;42.186;24.340;2023-07-13T06:40:49;99363.06;;;34.49;45.56
27729;BME280;15126;42.186;24.340;2023-07-13T06:43:15;99359.66;;;34.60;45.99
27729;BME280;15126;42.186;24.340;2023-07-13T06:45:45;99364.44;;;34.65;40.53
27729;BME280;15126;42.186;24.340;2023-07-13T06:48:17;99358.88;;;34.77;38.99
27729;BME280;15126;42.186;24.340;2023-07-13T06:50:44;99365.28;;;34.75;46.18
27729;BME280;15126;42.186;24.340;2023-07-13T06:53:12;99363.47;;;34.80;46.90
27729;BME280;15126;42.186;24.340;2023-07-13T06:55:39;99361.75;;;34.94;44.00
27729;BME280;15126;42.186;24.340;2023-07-13T06:58:06;99356.19;;;35.05;44.43
27729;BME280;15126;42.186;24.340;2023-07-13T07:00:34;99362.22;;;35.17;46.60
27729;BME280;15126;42.186;24.340;2023-07-13T07:03:01;99353.88;;;35.21;42.93
27729;BME280;15126;42.186;24.340;2023-07-13T07:05:29;99353.16;;;35.30;38.89
27729;BME280;15126;42.186;24.340;2023-07-13T07:07:56;99364.03;;;35.39;44.58
27729;BME280;15126;42.186;24.340;2023-07-13T07:10:23;99351.91;;;35.23;40.18
27729;BME280;15126;42.186;24.340;2023-07-13T07:12:49;99357.31;;;35.37;42.00
27729;BME280;15126;42.186;24.340;2023-07-13T07:15:17;99356.44;;;35.44;43.10
27729;BME280;15126;42.186;24.340;2023-07-13T07:17:44;99361.97;;;35.49;42.56
27729;BME280;15126;42.186;24.340;2023-07-13T07:20:12;99356.44;;;35.44;38.00
27729;BME280;15126;42.186;24.340;2023-07-13T07:22:42;99350.00;;;35.62;40.24
27729;BME280;15126;42.186;24.340;2023-07-13T07:25:09;99353.38;;;35.68;38.24
27729;BME280;15126;42.186;24.340;2023-07-13T07:27:35;99352.00;;;35.69;38.43
27729;BME280;15126;42.186;24.340;2023-07-13T07:30:05;99344.53;;;35.76;39.41
27729;BME280;15126;42.186;24.340;2023-07-13T07:32:32;99351.91;;;35.96;40.52
27729;BME280;15126;42.186;24.340;2023-07-13T07:34:59;99342.50;;;36.05;42.56
27729;BME280;15126;42.186;24.340;2023-07-13T07:37:26;99343.13;;;36.13;36.77
27729;BME280;15126;42.186;24.340;2023-07-13T07:39:54;99329.81;;;36.10;37.73
27729;BME280;15126;42.186;24.340;2023-07-13T07:42:21;99334.44;;;36.23;40.07
27729;BME280;15126;42.186;24.340;2023-07-13T07:44:51;99338.88;;;36.33;37.22
27729;BME280;15126;42.186;24.340;2023-07-13T07:47:18;99333.22;;;36.45;38.62
27729;BME280;15126;42.186;24.340;2023-07-13T07:49:48;99323.56;;;36.42;35.42
27729;BME280;15126;42.186;24.340;2023-07-13T07:52:18;99325.09;;;36.43;34.94
27729;BME280;15126;42.186;24.340;2023-07-13T07:54:45;99324.81;;;36.59;37.74
27729;BME280;15126;42.186;24.340;2023-07-13T07:57:13;99324.06;;;36.68;37.86
27729;BME280;15126;42.186;24.340;2023-07-13T07:59:39;99320.81;;;36.83;39.60
27729;BME280;15126;42.186;24.340;2023-07-13T08:02:08;99315.75;;;36.93;35.18
27729;BME280;15126;42.186;24.340;2023-07-13T08:04:36;99316.38;;;37.01;37.26
27729;BME280;15126;42.186;24.340;2023-07-13T08:07:03;99319.59;;;36.86;31.73
27729;BME280;15126;42.186;24.340;2023-07-13T08:09:30;99305.84;;;36.96;33.84
27729;BME280;15126;42.186;24.340;2023-07-13T08:11:57;99311.16;;;36.99;31.73
27729;BME280;15126;42.186;24.340;2023-07-13T08:14:25;99307.66;;;37.01;33.10
27729;BME280;15126;42.186;24.340;2023-07-13T08:16:54;99303.63;;;37.16;33.50
27729;BME280;15126;42.186;24.340;2023-07-13T08:19:21;99303.03;;;37.17;31.18
27729;BME280;15126;42.186;24.340;2023-07-13T08:21:50;99303.63;;;37.16;32.77
27729;BME280;15126;42.186;24.340;2023-07-13T08:24:18;99311.25;;;37.30;34.02
27729;BME280;15126;42.186;24.340;2023-07-13T08:26:48;99297.91;;;37.37;33.14
27729;BME280;15126;42.186;24.340;2023-07-13T08:29:14;99308.56;;;37.53;34.47
27729;BME280;15126;42.186;24.340;2023-07-13T08:31:43;99308.31;;;37.71;35.34
27729;BME280;15126;42.186;24.340;2023-07-13T08:34:10;99292.66;;;37.76;33.92
27729;BME280;15126;42.186;24.340;2023-07-13T08:36:40;99297.38;;;37.81;30.58
27729;BME280;15126;42.186;24.340;2023-07-13T08:39:06;99292.53;;;37.74;29.10
27729;BME280;15126;42.186;24.340;2023-07-13T08:41:37;99279.19;;;37.71;31.86
27729;BME280;15126;42.186;24.340;2023-07-13T08:44:11;99290.75;;;37.90;32.04
27729;BME280;15126;42.186;24.340;2023-07-13T08:46:45;99290.22;;;38.03;32.91
27729;BME280;15126;42.186;24.340;2023-07-13T08:49:15;99281.34;;;38.01;29.54
27729;BME280;15126;42.186;24.340;2023-07-13T08:51:47;99287.16;;;38.01;27.76
27729;BME280;15126;42.186;24.340;2023-07-13T08:54:21;99285.56;;;38.09;31.36
27729;BME280;15126;42.186;24.340;2023-07-13T08:56:50;99290.59;;;38.19;29.62
27729;BME280;15126;42.186;24.340;2023-07-13T08:59:22;99281.06;;;38.18;32.03
27729;BME280;15126;42.186;24.340;2023-07-13T09:02:23;99272.94;;;38.17;27.69
27729;BME280;15126;42.186;24.340;2023-07-13T09:04:56;99275.47;;;38.32;32.28
27729;BME280;15126;42.186;24.340;2023-07-13T09:07:31;99274.53;;;38.29;29.27
27729;BME280;15126;42.186;24.340;2023-07-13T09:10:08;99269.31;;;38.28;29.07
27729;BME280;15126;42.186;24.340;2023-07-13T09:12:46;99266.00;;;38.43;30.15
27729;BME280;15126;42.186;24.340;2023-07-13T09:15:22;99256.38;;;38.52;28.85
27729;BME280;15126;42.186;24.340;2023-07-13T09:17:53;99258.06;;;38.55;29.07
27729;BME280;15126;42.186;24.340;2023-07-13T09:20:25;99244.00;;;38.63;31.73
27729;BME280;15126;42.186;24.340;2023-07-13T09:22:54;99240.50;;;38.76;31.09
27729;BME280;15126;42.186;24.340;2023-07-13T09:25:26;99241.28;;;38.77;27.89
27729;BME280;15126;42.186;24.340;2023-07-13T09:27:59;99245.31;;;38.71;28.07
27729;BME280;15126;42.186;24.340;2023-07-13T09:30:34;99234.84;;;38.78;31.05
27729;BME280;15126;42.186;24.340;2023-07-13T09:33:05;99232.44;;;38.86;30.95
27729;BME280;15126;42.186;24.340;2023-07-13T09:35:32;99224.56;;;38.89;27.89
27729;BME280;15126;42.186;24.340;2023-07-13T09:38:04;99216.22;;;38.95;29.55
27729;BME280;15126;42.186;24.340;2023-07-13T09:40:44;99209.34;;;39.02;28.92
27729;BME280;15126;42.186;24.340;2023-07-13T09:43:15;99219.41;;;39.10;31.33
27729;BME280;15126;42.186;24.340;2023-07-13T09:45:45;99209.75;;;39.08;31.69
27729;BME280;15126;42.186;24.340;2023-07-13T09:48:16;99213.19;;;39.16;27.24
27729;BME280;15126;42.186;24.340;2023-07-13T09:50:44;99209.00;;;39.19;29.11
27729;BME280;15126;42.186;24.340;2023-07-13T09:53:12;99200.63;;;39.25;30.60
27729;BME280;15126;42.186;24.340;2023-07-13T09:55:44;99200.75;;;39.39;30.52
27729;BME280;15126;42.186;24.340;2023-07-13T09:58:13;99198.97;;;39.34;28.22
27729;BME280;15126;42.186;24.340;2023-07-13T10:00:42;99198.97;;;39.45;30.30
27729;BME280;15126;42.186;24.340;2023-07-13T10:03:17;99183.59;;;39.56;28.76
27729;BME280;15126;42.186;24.340;2023-07-13T10:05:45;99183.19;;;39.62;28.44
27729;BME280;15126;42.186;24.340;2023-07-13T10:08:21;99181.56;;;39.70;30.36
27729;BME280;15126;42.186;24.340;2023-07-13T10:10:53;99178.66;;;39.70;29.00
27729;BME280;15126;42.186;24.340;2023-07-13T10:13:30;99175.72;;;39.70;28.93
27729;BME280;15126;42.186;24.340;2023-07-13T10:15:58;99192.31;;;39.79;29.75
27729;BME280;15126;42.186;24.340;2023-07-13T10:18:28;99188.13;;;39.82;30.46
27729;BME280;15126;42.186;24.340;2023-07-13T10:21:11;99181.91;;;39.76;28.61
27729;BME280;15126;42.186;24.340;2023-07-13T10:23:39;99161.59;;;39.78;29.31
27729;BME280;15126;42.186;24.340;2023-07-13T10:26:13;99176.53;;;39.84;28.95
27729;BME280;15126;42.186;24.340;2023-07-13T10:28:42;99167.16;;;39.86;27.87
27729;BME280;15126;42.186;24.340;2023-07-13T10:31:14;99154.81;;;39.88;28.78
27729;BME280;15126;42.186;24.340;2023-07-13T10:33:43;99158.88;;;39.94;28.18
27729;BME280;15126;42.186;24.340;2023-07-13T10:36:17;99155.13;;;40.05;29.78
27729;BME280;15126;42.186;24.340;2023-07-13T10:38:46;99161.13;;;40.07;28.97
27729;BME280;15126;42.186;24.340;2023-07-13T10:41:18;99151.72;;;40.09;27.26
27729;BME280;15126;42.186;24.340;2023-07-13T10:43:49;99150.56;;;40.14;26.76
27729;BME280;15126;42.186;24.340;2023-07-13T10:46:19;99150.25;;;40.21;27.76
27729;BME280;15126;42.186;24.340;2023-07-13T10:48:51;99141.50;;;40.21;28.09
27729;BME280;15126;42.186;24.340;2023-07-13T10:51:23;99143.25;;;40.26;26.71
27729;BME280;15126;42.186;24.340;2023-07-13T10:54:12;99136.22;;;40.31;28.06
27729;BME280;15126;42.186;24.340;2023-07-13T10:56:42;99143.06;;;40.36;28.03
27729;BME280;15126;42.186;24.340;2023-07-13T10:59:12;99122.19;;;40.41;28.34
27729;BME280;15126;42.186;24.340;2023-07-13T11:01:50;99123.16;;;40.46;27.51
27729;BME280;15126;42.186;24.340;2023-07-13T11:04:19;99122.13;;;40.53;27.67
27729;BME280;15126;42.186;24.340;2023-07-13T11:06:48;99129.72;;;40.58;25.52
27729;BME280;15126;42.186;24.340;2023-07-13T11:09:35;99123.06;;;40.44;25.50
27729;BME280;15126;42.186;24.340;2023-07-13T11:12:07;99124.16;;;40.51;28.01
27729;BME280;15126;42.186;24.340;2023-07-13T11:14:43;99119.31;;;40.55;26.66
27729;BME280;15126;42.186;24.340;2023-07-13T11:17:49;99107.84;;;40.59;25.85
27729;BME280;15126;42.186;24.340;2023-07-13T11:20:31;99112.06;;;40.56;25.90
27729;BME280;15126;42.186;24.340;2023-07-13T11:23:29;99104.81;;;40.57;25.53
27729;BME280;15126;42.186;24.340;2023-07-13T11:25:56;99112.16;;;40.58;26.33
27729;BME280;15126;42.186;24.340;2023-07-13T11:28:27;99111.63;;;40.62;26.96
27729;BME280;15126;42.186;24.340;2023-07-13T11:31:14;99103.16;;;40.54;24.60
27729;BME280;15126;42.186;24.340;2023-07-13T11:33:54;99097.88;;;40.64;27.31
27729;BME280;15126;42.186;24.340;2023-07-13T11:36:30;99087.81;;;40.67;28.34
27729;BME280;15126;42.186;24.340;2023-07-13T11:39:01;99093.88;;;40.71;27.47
27729;BME280;15126;42.186;24.340;2023-07-13T11:41:33;99088.69;;;40.83;24.75
27729;BME280;15126;42.186;24.340;2023-07-13T11:44:06;99088.59;;;40.81;24.92
27729;BME280;15126;42.186;24.340;2023-07-13T11:46:34;99082.28;;;40.73;24.70
27729;BME280;15126;42.186;24.340;2023-07-13T11:49:04;99075.00;;;40.74;25.32
27729;BME280;15126;42.186;24.340;2023-07-13T11:51:35;99078.06;;;40.76;25.36
27729;BME280;15126;42.186;24.340;2023-07-13T11:54:05;99072.31;;;40.78;26.68
27729;BME280;15126;42.186;24.340;2023-07-13T11:56:33;99059.75;;;40.76;26.01
27729;BME280;15126;42.186;24.340;2023-07-13T11:59:05;99063.75;;;40.82;25.37
27729;BME280;15126;42.186;24.340;2023-07-13T12:01:33;99054.88;;;40.80;26.18
27729;BME280;15126;42.186;24.340;2023-07-13T12:04:03;99056.81;;;40.89;25.62
27729;BME280;15126;42.186;24.340;2023-07-13T12:06:34;99051.53;;;40.99;27.69
27729;BME280;15126;42.186;24.340;2023-07-13T12:09:11;99043.28;;;40.96;25.94
27729;BME280;15126;42.186;24.340;2023-07-13T12:11:40;99049.13;;;41.10;25.72
27729;BME280;15126;42.186;24.340;2023-07-13T12:14:13;99049.34;;;41.14;25.81
27729;BME280;15126;42.186;24.340;2023-07-13T12:16:41;99041.78;;;41.09;24.17
27729;BME280;15126;42.186;24.340;2023-07-13T12:19:17;99037.31;;;41.08;23.47
27729;BME280;15126;42.186;24.340;2023-07-13T12:21:46;99035.38;;;41.12;25.72
27729;BME280;15126;42.186;24.340;2023-07-13T12:24:18;99038.94;;;41.11;26.40
27729;BME280;15126;42.186;24.340;2023-07-13T12:26:51;99036.69;;;41.09;27.21
27729;BME280;15126;42.186;24.340;2023-07-13T12:29:18;99021.28;;;41.09;27.15
27729;BME280;15126;42.186;24.340;2023-07-13T12:31:46;99037.88;;;41.18;24.06
27729;BME280;15126;42.186;24.340;2023-07-13T12:34:18;99017.16;;;41.14;26.19
27729;BME280;15126;42.186;24.340;2023-07-13T12:36:49;99033.09;;;41.11;25.53
27729;BME280;15126;42.186;24.340;2023-07-13T12:39:19;99039.38;;;41.19;25.49
27729;BME280;15126;42.186;24.340;2023-07-13T12:41:47;99028.41;;;41.19;26.42
27729;BME280;15126;42.186;24.340;2023-07-13T12:44:16;99026.56;;;41.26;24.37
27729;BME280;15126;42.186;24.340;2023-07-13T12:46:56;99028.84;;;41.14;24.33
27729;BME280;15126;42.186;24.340;2023-07-13T12:49:27;99021.56;;;41.28;24.15
27729;BME280;15126;42.186;24.340;2023-07-13T12:51:59;99021.88;;;41.34;26.74
27729;BME280;15126;42.186;24.340;2023-07-13T12:54:28;99016.69;;;41.33;25.62
27729;BME280;15126;42.186;24.340;2023-07-13T12:56:56;99013.34;;;41.25;24.48
27729;BME280;15126;42.186;24.340;2023-07-13T12:59:26;99013.78;;;41.33;24.19
27729;BME280;15126;42.186;24.340;2023-07-13T13:01:55;99012.66;;;41.26;25.47